Time;durP1;ratioP1;P1;durP2;ratioP2;P2;SDS_P1;SDS_P2;PMS_P1;PMS_P2;Temp;Humidity;BMP_temperature;BMP_pressure;BME280_temperature;BME280_humidity;BME280_pressure;Samples;Min_cycle;Max_cycle;Signal;HPM_P1;HPM_P2
2020/12/12 00:01:35;;;;;;;2.37;2.13;;;3.80;98.00;;;;;;5070399;28;20453;-62
2020/12/12 00:04:02;;;;;;;1.10;1.10;;;3.70;98.00;;;;;;5071402;28;20507;-62
2020/12/12 00:06:28;;;;;;;2.00;1.93;;;3.80;98.00;;;;;;5070436;28;20506;-61
2020/12/12 00:08:55;;;;;;;1.83;1.67;;;3.80;98.00;;;;;;5072143;28;20457;-61
2020/12/12 00:11:22;;;;;;;2.80;1.43;;;3.80;98.00;;;;;;5070089;28;20453;-62
2020/12/12 00:13:49;;;;;;;1.10;1.10;;;3.80;98.00;;;;;;5072008;28;20481;-62
2020/12/12 00:16:16;;;;;;;1.10;1.00;;;3.70;98.00;;;;;;5070396;28;20510;-62
2020/12/12 00:18:42;;;;;;;1.67;1.50;;;3.80;98.00;;;;;;5072090;28;20923;-62
2020/12/12 00:21:09;;;;;;;1.10;1.00;;;3.80;98.00;;;;;;5069964;28;20448;-61
2020/12/12 00:23:37;;;;;;;1.50;1.27;;;3.80;98.00;;;;;;5071853;28;20510;-62
2020/12/12 00:26:03;;;;;;;2.03;1.30;;;3.80;98.00;;;;;;5069973;28;20520;-62
2020/12/12 00:28:31;;;;;;;1.10;1.10;;;3.80;98.00;;;;;;5071822;28;20453;-61
2020/12/12 00:30:58;;;;;;;1.10;1.00;;;3.80;98.00;;;;;;5069895;28;20456;-62
2020/12/12 00:33:24;;;;;;;1.10;1.10;;;3.90;98.00;;;;;;5071379;28;20843;-61
2020/12/12 00:35:51;;;;;;;1.40;1.00;;;3.90;98.00;;;;;;5069741;28;20528;-62
2020/12/12 00:38:17;;;;;;;1.10;1.10;;;3.90;98.00;;;;;;5071486;28;20456;-62
2020/12/12 00:40:57;;;;;;;1.63;1.53;;;4.00;98.00;;;;;;5069752;28;21024;-61
2020/12/12 00:43:24;;;;;;;1.10;1.00;;;4.10;98.00;;;;;;5071388;28;21010;-61
2020/12/12 00:45:52;;;;;;;1.30;1.13;;;4.10;98.00;;;;;;5069574;28;20456;-62
2020/12/12 00:48:19;;;;;;;1.10;1.00;;;4.10;98.00;;;;;;5070839;28;20479;-62
2020/12/12 00:50:46;;;;;;;1.10;1.00;;;4.20;98.00;;;;;;5069097;28;20526;-61
2020/12/12 00:53:12;;;;;;;1.33;1.27;;;4.10;98.00;;;;;;5070800;28;20627;-62
2020/12/12 00:55:46;;;;;;;1.20;1.10;;;4.00;98.00;;;;;;5069384;28;20510;-62
2020/12/12 00:58:21;;;;;;;1.47;1.30;;;4.00;98.00;;;;;;5071163;28;20506;-61
2020/12/12 01:00:48;;;;;;;1.20;1.10;;;4.00;98.00;;;;;;5069502;28;20526;-61
2020/12/12 01:03:15;;;;;;;1.20;1.00;;;4.00;98.00;;;;;;5071102;28;20457;-61
2020/12/12 01:05:44;;;;;;;1.10;1.00;;;4.00;98.00;;;;;;5070413;28;20445;-63
2020/12/12 01:08:11;;;;;;;1.40;1.30;;;4.00;98.00;;;;;;5071127;28;20490;-61
2020/12/12 01:10:39;;;;;;;1.40;1.40;;;4.20;98.00;;;;;;5071224;28;20923;-62
2020/12/12 01:13:06;;;;;;;1.60;1.57;;;4.20;98.00;;;;;;5069587;28;20481;-61
2020/12/12 01:15:32;;;;;;;1.20;1.00;;;4.20;98.00;;;;;;5073146;28;20506;-62
2020/12/12 01:18:00;;;;;;;2.17;1.67;;;4.10;98.00;;;;;;5073139;28;20456;-62
2020/12/12 01:20:27;;;;;;;1.67;1.53;;;4.10;98.00;;;;;;5074307;28;20445;-62
2020/12/12 01:22:54;;;;;;;1.50;1.40;;;4.10;98.00;;;;;;5073356;28;20506;-61
2020/12/12 01:25:20;;;;;;;1.10;1.00;;;4.00;98.00;;;;;;5075328;28;20507;-61
2020/12/12 01:27:50;;;;;;;1.17;1.10;;;4.00;98.00;;;;;;5073663;28;20460;-61
2020/12/12 01:30:17;;;;;;;3.83;1.60;;;3.90;98.00;;;;;;5075385;28;20456;-62
2020/12/12 01:32:44;;;;;;;1.60;1.50;;;3.90;98.00;;;;;;5073506;28;20451;-62
2020/12/12 01:35:11;;;;;;;1.10;1.00;;;4.00;98.00;;;;;;5075087;28;20455;-61
2020/12/12 01:37:38;;;;;;;1.70;1.30;;;4.00;98.00;;;;;;5073566;28;20460;-61
2020/12/12 01:40:05;;;;;;;2.07;1.60;;;3.90;98.00;;;;;;5074933;28;20512;-61
2020/12/12 01:42:33;;;;;;;2.70;1.67;;;3.90;98.00;;;;;;5073180;28;20511;-61
2020/12/12 01:44:59;;;;;;;1.43;1.43;;;3.90;98.00;;;;;;5073478;28;20531;-62
2020/12/12 01:47:29;;;;;;;1.10;1.00;;;3.90;98.00;;;;;;5072577;28;20452;-62
2020/12/12 01:49:55;;;;;;;1.10;1.00;;;3.90;98.00;;;;;;5074656;28;20452;-63
2020/12/12 01:52:24;;;;;;;1.50;1.40;;;3.90;98.00;;;;;;5072838;28;20452;-61
2020/12/12 01:54:52;;;;;;;1.30;1.20;;;3.90;98.00;;;;;;5074416;28;20491;-62
2020/12/12 01:57:23;;;;;;;3.57;1.77;;;3.80;98.00;;;;;;5072875;28;20452;-62
2020/12/12 01:59:51;;;;;;;2.20;1.77;;;3.80;98.00;;;;;;5074360;28;20456;-61
2020/12/12 02:02:22;;;;;;;1.30;1.20;;;3.80;98.00;;;;;;5072260;28;20810;-61
2020/12/12 02:04:50;;;;;;;1.50;1.13;;;3.90;98.00;;;;;;5073260;28;20506;-61
2020/12/12 02:07:18;;;;;;;1.50;1.43;;;3.90;98.00;;;;;;5072655;28;20453;-62
2020/12/12 02:09:45;;;;;;;1.50;1.33;;;3.80;98.00;;;;;;5073197;28;20460;-62
2020/12/12 02:12:13;;;;;;;1.57;1.40;;;3.80;98.00;;;;;;5072211;28;20455;-62
2020/12/12 02:14:40;;;;;;;1.93;1.33;;;3.70;98.00;;;;;;5073692;28;20558;-62
2020/12/12 02:17:10;;;;;;;1.53;1.20;;;3.70;98.00;;;;;;5071088;28;20457;-61
2020/12/12 02:19:37;;;;;;;3.97;2.43;;;3.70;98.00;;;;;;5074116;28;20449;-62
2020/12/12 02:22:06;;;;;;;1.17;1.07;;;3.70;98.00;;;;;;5072201;28;20534;-61
2020/12/12 02:24:33;;;;;;;1.37;1.33;;;3.70;98.00;;;;;;5074270;28;20453;-62
2020/12/12 02:27:01;;;;;;;1.10;1.00;;;3.70;98.00;;;;;;5070948;28;20483;-61
2020/12/12 02:29:39;;;;;;;1.20;1.00;;;3.70;98.00;;;;;;5073946;28;20529;-61
2020/12/12 02:32:08;;;;;;;1.57;1.40;;;3.60;98.00;;;;;;5071900;28;20448;-61
2020/12/12 02:34:35;;;;;;;1.37;1.37;;;3.50;98.00;;;;;;5073681;28;20493;-61
2020/12/12 02:37:02;;;;;;;1.67;1.57;;;3.40;98.00;;;;;;5073223;28;20460;-62
2020/12/12 02:39:30;;;;;;;1.50;1.27;;;3.50;98.00;;;;;;5072562;28;20452;-62
2020/12/12 02:41:56;;;;;;;1.10;1.00;;;3.70;98.00;;;;;;5072647;28;20460;-62
2020/12/12 02:44:23;;;;;;;2.13;1.37;;;3.70;98.00;;;;;;5071893;28;20457;-62
2020/12/12 02:46:49;;;;;;;1.60;1.50;;;3.50;98.00;;;;;;5073912;28;20460;-61
2020/12/12 02:49:16;;;;;;;1.60;1.50;;;3.50;98.00;;;;;;5071662;28;20455;-61
2020/12/12 02:51:43;;;;;;;1.60;1.23;;;3.40;98.00;;;;;;5074159;28;20441;-61
2020/12/12 02:54:10;;;;;;;1.70;1.10;;;3.50;98.00;;;;;;5071780;28;20484;-62
2020/12/12 02:56:37;;;;;;;1.20;1.13;;;3.40;98.00;;;;;;5073960;28;20452;-62
2020/12/12 02:59:04;;;;;;;2.17;1.53;;;3.40;98.00;;;;;;5071559;28;20525;-61
2020/12/12 03:01:30;;;;;;;1.10;1.00;;;3.40;98.00;;;;;;5073449;28;20510;-61
2020/12/12 03:03:57;;;;;;;1.10;1.00;;;3.40;98.00;;;;;;5071417;28;20457;-61
2020/12/12 03:06:23;;;;;;;2.13;1.20;;;3.40;98.00;;;;;;5072280;28;20518;-62
2020/12/12 03:08:50;;;;;;;1.30;1.20;;;3.50;98.00;;;;;;5071829;28;20866;-61
2020/12/12 03:11:16;;;;;;;1.10;1.00;;;3.60;98.00;;;;;;5073269;28;20461;-61
2020/12/12 03:13:44;;;;;;;1.13;1.00;;;3.60;98.00;;;;;;5071242;28;20561;-61
2020/12/12 03:16:10;;;;;;;1.10;1.00;;;3.60;98.00;;;;;;5073077;28;20452;-61
2020/12/12 03:18:36;;;;;;;1.10;1.00;;;3.60;98.00;;;;;;5071221;28;20788;-61
2020/12/12 03:21:03;;;;;;;10.57;1.90;;;3.70;98.00;;;;;;5072962;28;20448;-61
2020/12/12 03:23:29;;;;;;;1.10;0.97;;;3.80;98.00;;;;;;5069678;28;20816;-61
2020/12/12 03:25:56;;;;;;;1.10;1.00;;;3.70;98.00;;;;;;5072788;28;20515;-62
2020/12/12 03:28:22;;;;;;;1.73;1.63;;;3.60;98.00;;;;;;5070627;28;20612;-62
2020/12/12 03:30:50;;;;;;;1.20;1.20;;;3.60;98.00;;;;;;5072848;28;20603;-62
2020/12/12 03:33:16;;;;;;;1.10;1.00;;;3.60;98.00;;;;;;5070508;28;20483;-62
2020/12/12 03:35:43;;;;;;;1.20;1.17;;;3.50;98.00;;;;;;5072666;28;20456;-61
2020/12/12 03:38:09;;;;;;;4.97;2.13;;;3.40;98.00;;;;;;5070527;28;20529;-62
2020/12/12 03:40:36;;;;;;;1.10;1.00;;;3.30;98.00;;;;;;5072404;28;20811;-62
2020/12/12 03:43:02;;;;;;;1.10;1.00;;;3.30;98.00;;;;;;5070688;28;20534;-62
2020/12/12 03:45:29;;;;;;;1.20;1.20;;;3.40;98.00;;;;;;5072469;28;20457;-61
2020/12/12 03:47:56;;;;;;;2.60;2.30;;;3.50;98.00;;;;;;5069884;28;20581;-61
2020/12/12 03:50:27;;;;;;;1.70;1.43;;;3.60;98.00;;;;;;5071148;28;20456;-62
2020/12/12 03:52:55;;;;;;;1.50;1.40;;;3.50;98.00;;;;;;5071774;28;20853;-62
2020/12/12 03:55:22;;;;;;;1.40;1.33;;;3.40;98.00;;;;;;5071515;28;20488;-63
2020/12/12 03:57:49;;;;;;;1.83;1.20;;;3.40;98.00;;;;;;5072171;28;20453;-61
2020/12/12 04:00:16;;;;;;;1.10;0.90;;;3.40;98.00;;;;;;5070238;28;20462;-61
2020/12/12 04:02:50;;;;;;;1.10;1.00;;;3.40;98.00;;;;;;5072085;28;21011;-62
2020/12/12 04:05:18;;;;;;;1.33;1.20;;;3.50;98.00;;;;;;5070350;28;20952;-61
2020/12/12 04:07:45;;;;;;;1.40;1.37;;;3.60;98.00;;;;;;5072142;28;20445;-61
2020/12/12 04:10:11;;;;;;;2.80;2.30;;;3.70;98.00;;;;;;5070444;28;20838;-62
2020/12/12 04:12:38;;;;;;;1.10;1.00;;;3.70;98.00;;;;;;5072276;28;20457;-62
2020/12/12 04:15:04;;;;;;;1.10;1.10;;;3.60;98.00;;;;;;5068913;28;20930;-61
2020/12/12 04:17:31;;;;;;;1.37;1.23;;;3.60;98.00;;;;;;5072249;28;20505;-62
2020/12/12 04:19:58;;;;;;;1.30;1.23;;;3.60;98.00;;;;;;5070198;28;20510;-61
2020/12/12 04:22:25;;;;;;;1.10;1.00;;;3.60;98.00;;;;;;5071952;28;20514;-61
2020/12/12 04:24:52;;;;;;;1.80;1.57;;;3.60;98.00;;;;;;5070102;28;20509;-62
2020/12/12 04:27:18;;;;;;;1.77;1.43;;;3.70;98.00;;;;;;5071865;28;20453;-61
2020/12/12 04:29:45;;;;;;;1.20;1.10;;;3.80;98.00;;;;;;5070059;28;20457;-62
2020/12/12 04:32:11;;;;;;;3.00;1.83;;;3.90;98.00;;;;;;5071762;28;20797;-62
2020/12/12 04:34:38;;;;;;;1.20;1.10;;;4.00;98.00;;;;;;5069614;28;20481;-61
2020/12/12 04:37:04;;;;;;;1.20;1.10;;;3.90;98.00;;;;;;5071630;28;20524;-62
2020/12/12 04:39:32;;;;;;;1.10;1.00;;;4.00;98.00;;;;;;5069847;28;20449;-61
2020/12/12 04:41:59;;;;;;;1.10;1.00;;;3.90;98.00;;;;;;5071528;28;20501;-62
2020/12/12 04:44:25;;;;;;;1.10;1.00;;;3.90;98.00;;;;;;5069325;28;20925;-62
2020/12/12 04:46:54;;;;;;;1.87;1.33;;;3.90;98.00;;;;;;5071473;28;20475;-62
2020/12/12 04:49:21;;;;;;;2.30;1.93;;;3.90;98.00;;;;;;5069279;28;20509;-61
2020/12/12 04:51:48;;;;;;;1.30;1.20;;;4.10;98.00;;;;;;5071046;28;20523;-61
2020/12/12 04:54:19;;;;;;;1.20;1.00;;;4.20;98.00;;;;;;5069391;28;20485;-62
2020/12/12 04:56:47;;;;;;;1.20;1.00;;;4.20;98.00;;;;;;5071295;28;20616;-61
2020/12/12 04:59:15;;;;;;;1.47;1.00;;;4.20;98.00;;;;;;5069449;28;20862;-62
2020/12/12 05:01:42;;;;;;;1.50;1.47;;;4.10;98.00;;;;;;5071388;28;20510;-61
2020/12/12 05:04:08;;;;;;;1.17;0.97;;;4.00;98.00;;;;;;5069341;28;20510;-62
2020/12/12 05:06:35;;;;;;;1.43;1.43;;;3.90;98.00;;;;;;5071173;28;20492;-61
2020/12/12 05:09:02;;;;;;;1.97;1.63;;;3.70;98.00;;;;;;5069382;28;20457;-62
2020/12/12 05:11:29;;;;;;;1.30;1.10;;;3.70;98.00;;;;;;5069996;28;20519;-61
2020/12/12 05:13:56;;;;;;;1.53;1.40;;;3.80;98.00;;;;;;5069273;28;21151;-62
2020/12/12 05:16:23;;;;;;;1.33;1.30;;;3.70;98.00;;;;;;5071022;28;20452;-61
2020/12/12 05:18:50;;;;;;;1.27;1.23;;;3.80;98.00;;;;;;5071245;28;20457;-62
2020/12/12 05:21:17;;;;;;;1.63;1.00;;;3.90;98.00;;;;;;5069487;28;20445;-62
2020/12/12 05:23:44;;;;;;;2.27;1.57;;;3.90;98.00;;;;;;5071349;28;20476;-61
2020/12/12 05:26:12;;;;;;;1.50;1.40;;;3.80;98.00;;;;;;5069540;28;20924;-62
2020/12/12 05:28:40;;;;;;;2.13;1.37;;;3.80;98.00;;;;;;5071440;28;20925;-62
2020/12/12 05:31:09;;;;;;;1.20;1.10;;;3.80;98.00;;;;;;5069414;28;20932;-63
2020/12/12 05:33:36;;;;;;;1.23;1.20;;;3.80;98.00;;;;;;5071212;28;20538;-62
2020/12/12 05:36:03;;;;;;;1.10;1.00;;;3.90;98.00;;;;;;5067803;28;20513;-62
2020/12/12 05:38:30;;;;;;;1.90;1.30;;;3.80;98.00;;;;;;5071304;28;20453;-61
2020/12/12 05:40:57;;;;;;;2.27;1.30;;;3.80;98.00;;;;;;5069404;28;20506;-62
2020/12/12 05:43:32;;;;;;;1.40;1.20;;;3.80;98.00;;;;;;5071178;28;20457;-62
2020/12/12 05:46:00;;;;;;;1.20;1.10;;;3.90;98.00;;;;;;5051372;28;20453;-61
2020/12/12 05:48:28;;;;;;;1.20;1.10;;;3.90;98.00;;;;;;5070929;28;20937;-62
2020/12/12 05:50:56;;;;;;;1.10;1.00;;;4.00;98.00;;;;;;5069012;28;20456;-61
2020/12/12 05:53:25;;;;;;;1.67;1.10;;;4.00;98.00;;;;;;5070751;28;20479;-61
2020/12/12 05:55:54;;;;;;;1.63;1.17;;;4.00;98.00;;;;;;5069036;28;20844;-62
2020/12/12 05:58:22;;;;;;;1.27;1.23;;;4.00;98.00;;;;;;5070854;28;20940;-61
2020/12/12 06:00:49;;;;;;;1.20;1.00;;;4.00;98.00;;;;;;5068799;28;20487;-62
2020/12/12 06:03:23;;;;;;;1.30;1.10;;;4.00;98.00;;;;;;5073265;28;20448;-62
2020/12/12 06:06:01;;;;;;;1.13;0.90;;;4.00;98.00;;;;;;5072632;28;20511;-62
2020/12/12 06:08:35;;;;;;;1.50;1.37;;;4.00;98.00;;;;;;5074340;28;20892;-62
2020/12/12 06:11:05;;;;;;;1.70;1.47;;;4.00;98.00;;;;;;5072366;28;20517;-62
2020/12/12 06:13:35;;;;;;;3.53;1.57;;;4.10;98.00;;;;;;5072947;28;20481;-62
2020/12/12 06:16:04;;;;;;;1.60;1.20;;;4.10;98.00;;;;;;5072401;28;20478;-62
2020/12/12 06:18:48;;;;;;;1.37;1.20;;;4.10;98.00;;;;;;5074219;28;20484;-61
2020/12/12 06:21:15;;;;;;;1.33;1.17;;;4.20;98.00;;;;;;5072269;28;20530;-61
2020/12/12 06:23:42;;;;;;;2.63;1.63;;;4.20;98.00;;;;;;5073859;28;20482;-62
2020/12/12 06:26:10;;;;;;;1.73;1.20;;;4.20;98.00;;;;;;5072542;28;20510;-62
2020/12/12 06:28:41;;;;;;;1.20;1.00;;;4.10;98.00;;;;;;5073996;28;20457;-62
2020/12/12 06:31:09;;;;;;;1.53;1.43;;;4.10;98.00;;;;;;5072141;28;20457;-61
2020/12/12 06:33:48;;;;;;;1.13;1.00;;;4.10;98.00;;;;;;5073749;28;20534;-62
2020/12/12 06:36:27;;;;;;;1.20;1.10;;;4.00;98.00;;;;;;5071840;28;20969;-62
2020/12/12 06:39:19;;;;;;;1.73;1.73;;;4.10;98.00;;;;;;5073616;28;20460;-61
2020/12/12 06:41:46;;;;;;;2.30;1.50;;;4.20;98.00;;;;;;5072271;28;20514;-62
2020/12/12 06:44:20;;;;;;;1.17;1.00;;;4.20;98.00;;;;;;5073871;28;20449;-62
2020/12/12 06:46:54;;;;;;;2.03;1.50;;;4.20;98.00;;;;;;5071955;28;20455;-62
2020/12/12 06:49:21;;;;;;;4.10;2.10;;;4.20;98.00;;;;;;5073995;28;20814;-62
2020/12/12 06:51:49;;;;;;;1.40;1.20;;;4.20;98.00;;;;;;5071241;28;21008;-62
2020/12/12 06:54:15;;;;;;;1.20;1.10;;;4.10;98.00;;;;;;5072610;28;21014;-61
2020/12/12 06:56:42;;;;;;;1.60;1.37;;;4.20;98.00;;;;;;5070954;28;20609;-61
2020/12/12 06:59:40;;;;;;;1.60;1.20;;;4.20;98.00;;;;;;5072742;28;20514;-62
2020/12/12 07:02:07;;;;;;;1.20;1.00;;;4.20;98.00;;;;;;5009523;28;21042;-61
2020/12/12 07:04:35;;;;;;;2.27;1.63;;;4.00;98.00;;;;;;5059186;28;20461;-61
2020/12/12 07:07:07;;;;;;;1.30;1.27;;;4.00;98.00;;;;;;5071473;28;20465;-62
2020/12/12 07:09:35;;;;;;;2.10;1.97;;;4.10;98.00;;;;;;5073446;28;20456;-61
2020/12/12 07:12:02;;;;;;;3.63;1.80;;;4.10;98.00;;;;;;5070895;28;20527;-61
2020/12/12 07:14:30;;;;;;;1.63;1.53;;;4.10;98.00;;;;;;5071334;28;20538;-61
2020/12/12 07:16:59;;;;;;;2.13;1.33;;;4.10;98.00;;;;;;5071105;28;20507;-62
2020/12/12 07:19:33;;;;;;;1.10;0.90;;;4.20;98.00;;;;;;5072956;28;20522;-62
2020/12/12 07:22:00;;;;;;;2.70;2.23;;;4.20;98.00;;;;;;5071472;28;20457;-61
2020/12/12 07:24:28;;;;;;;2.37;1.83;;;4.30;98.00;;;;;;5072933;28;20448;-62
2020/12/12 07:26:55;;;;;;;2.27;1.60;;;4.30;98.00;;;;;;5071357;28;20460;-62
2020/12/12 07:29:23;;;;;;;1.10;0.90;;;4.20;98.00;;;;;;5072869;28;20502;-61
2020/12/12 07:31:51;;;;;;;1.40;1.20;;;4.20;98.00;;;;;;5071185;28;20468;-62
2020/12/12 07:34:19;;;;;;;2.17;1.20;;;4.20;98.00;;;;;;5072586;28;20492;-61
2020/12/12 07:36:46;;;;;;;3.83;2.23;;;4.30;98.00;;;;;;5069861;28;20449;-62
2020/12/12 07:39:13;;;;;;;1.10;1.03;;;4.30;98.00;;;;;;5071136;28;20503;-61
2020/12/12 07:41:47;;;;;;;2.07;1.20;;;4.20;98.00;;;;;;5070900;28;20449;-61
2020/12/12 07:44:14;;;;;;;1.10;1.10;;;4.20;98.00;;;;;;5072381;28;20472;-61
2020/12/12 07:46:55;;;;;;;1.60;1.10;;;4.20;98.00;;;;;;5070669;28;20452;-61
2020/12/12 07:49:21;;;;;;;1.10;0.90;;;4.30;98.00;;;;;;5072303;28;20456;-61
2020/12/12 07:51:48;;;;;;;1.20;1.00;;;4.20;98.00;;;;;;5070159;28;20452;-62
2020/12/12 07:54:17;;;;;;;1.10;1.00;;;4.40;98.00;;;;;;5072192;28;20489;-62
2020/12/12 07:56:54;;;;;;;1.30;1.30;;;4.50;98.00;;;;;;5070566;28;20449;-61
2020/12/12 07:59:21;;;;;;;1.20;1.20;;;4.60;98.00;;;;;;5072091;28;20484;-61
2020/12/12 08:01:49;;;;;;;2.30;1.30;;;4.50;98.00;;;;;;5069918;28;20523;-63
2020/12/12 08:04:22;;;;;;;1.20;1.20;;;4.60;98.00;;;;;;5071888;28;20471;-62
2020/12/12 08:06:50;;;;;;;1.20;1.10;;;4.60;98.00;;;;;;5070334;28;20448;-61
2020/12/12 08:09:21;;;;;;;1.63;1.53;;;4.80;98.00;;;;;;5072351;28;20461;-61
2020/12/12 08:11:57;;;;;;;1.40;1.10;;;4.90;98.00;;;;;;5069794;28;20509;-61
2020/12/12 08:14:24;;;;;;;1.43;1.20;;;4.80;98.00;;;;;;5072184;28;20967;-61
2020/12/12 08:16:55;;;;;;;1.30;1.20;;;5.00;98.00;;;;;;5070335;28;20453;-61
2020/12/12 08:19:22;;;;;;;1.83;1.30;;;5.00;98.00;;;;;;5071943;28;20540;-61
2020/12/12 08:21:50;;;;;;;1.17;1.10;;;5.10;98.00;;;;;;5070024;28;20449;-62
2020/12/12 08:24:18;;;;;;;1.43;1.40;;;5.10;98.00;;;;;;5071503;28;20448;-62
2020/12/12 08:26:44;;;;;;;3.80;2.57;;;5.10;98.00;;;;;;5069661;28;20452;-60
2020/12/12 08:29:12;;;;;;;1.50;1.40;;;5.10;98.00;;;;;;5071967;28;20457;-61
2020/12/12 08:31:40;;;;;;;1.87;1.40;;;5.10;98.00;;;;;;5069848;28;20453;-62
2020/12/12 08:34:07;;;;;;;1.20;1.00;;;5.10;98.00;;;;;;5071517;28;20645;-61
2020/12/12 08:36:35;;;;;;;2.17;1.43;;;5.20;98.00;;;;;;5069784;28;20563;-61
2020/12/12 08:39:05;;;;;;;1.20;1.13;;;5.30;98.00;;;;;;5071606;28;20476;-62
2020/12/12 08:41:33;;;;;;;1.20;1.00;;;5.20;98.00;;;;;;5071531;28;20456;-61
2020/12/12 08:44:00;;;;;;;1.30;1.27;;;5.30;98.00;;;;;;5066846;28;20473;-61
2020/12/12 08:46:28;;;;;;;1.77;1.50;;;5.30;98.00;;;;;;5070984;28;20453;-62
2020/12/12 08:48:55;;;;;;;1.43;1.13;;;5.30;98.00;;;;;;5068899;28;21023;-61
2020/12/12 08:51:26;;;;;;;2.87;2.27;;;5.40;98.00;;;;;;5070820;28;20502;-61
2020/12/12 08:53:53;;;;;;;1.10;1.00;;;5.40;98.00;;;;;;5068931;28;20526;-61
2020/12/12 08:56:28;;;;;;;2.90;1.70;;;5.30;98.00;;;;;;5070619;28;20510;-61
2020/12/12 08:58:57;;;;;;;4.40;2.23;;;5.30;98.00;;;;;;5068838;28;21012;-62
2020/12/12 09:01:36;;;;;;;2.37;2.17;;;5.30;98.00;;;;;;5069714;28;20462;-61
2020/12/12 09:04:20;;;;;;;1.77;1.40;;;5.40;98.00;;;;;;5069275;28;20444;-61
2020/12/12 09:06:49;;;;;;;1.20;1.00;;;5.30;98.00;;;;;;5069105;28;20464;-62
2020/12/12 09:09:19;;;;;;;1.80;1.70;;;5.50;98.00;;;;;;5069850;28;20460;-62
2020/12/12 09:11:47;;;;;;;2.37;2.17;;;5.50;98.00;;;;;;5070407;28;20489;-62
2020/12/12 09:14:14;;;;;;;1.50;1.40;;;5.60;98.00;;;;;;5069143;28;20550;-62
2020/12/12 09:16:47;;;;;;;1.40;1.30;;;5.60;98.00;;;;;;5069108;28;20518;-62
2020/12/12 09:19:14;;;;;;;1.27;1.23;;;5.70;98.00;;;;;;5068648;28;20459;-63
2020/12/12 09:21:40;;;;;;;2.13;1.30;;;5.80;98.00;;;;;;5070242;28;20512;-62
2020/12/12 09:24:07;;;;;;;2.10;1.97;;;6.00;98.00;;;;;;5068620;28;20506;-61
2020/12/12 09:26:34;;;;;;;1.50;1.40;;;6.20;98.00;;;;;;5069431;28;20464;-62
2020/12/12 09:29:01;;;;;;;2.70;1.63;;;6.10;98.00;;;;;;5068607;28;20453;-61
2020/12/12 09:31:28;;;;;;;1.50;1.30;;;6.20;98.00;;;;;;5070271;28;20995;-63
2020/12/12 09:33:56;;;;;;;2.57;1.80;;;6.20;98.00;;;;;;5068174;28;20485;-61
2020/12/12 09:36:22;;;;;;;2.60;1.77;;;6.30;98.00;;;;;;5071614;28;20454;-62
2020/12/12 09:38:49;;;;;;;1.87;1.73;;;6.40;98.00;;;;;;5072547;28;20450;-62
2020/12/12 09:41:16;;;;;;;1.50;1.40;;;6.50;98.00;;;;;;5074499;28;20518;-61
2020/12/12 09:43:43;;;;;;;1.50;1.20;;;6.60;98.00;;;;;;5072482;28;20454;-63
2020/12/12 09:46:10;;;;;;;1.10;1.00;;;7.20;98.00;;;;;;5074454;28;20481;-62
2020/12/12 09:48:38;;;;;;;1.30;1.20;;;8.50;98.00;;;;;;5072415;28;20511;-62
2020/12/12 09:51:08;;;;;;;1.47;1.33;;;9.70;98.00;;;;;;5073994;28;20458;-63
2020/12/12 09:53:35;;;;;;;1.93;1.87;;;9.90;98.00;;;;;;5072204;28;20822;-63
2020/12/12 09:56:01;;;;;;;1.60;1.30;;;9.60;98.00;;;;;;5073928;28;20520;-63
2020/12/12 09:58:28;;;;;;;1.50;1.33;;;9.40;98.00;;;;;;5072307;28;20872;-63
2020/12/12 10:00:54;;;;;;;2.47;1.90;;;9.30;98.00;;;;;;5073710;28;20878;-62
2020/12/12 10:03:21;;;;;;;1.80;1.20;;;8.90;98.00;;;;;;5071988;28;20795;-62
2020/12/12 10:05:47;;;;;;;1.40;1.40;;;8.70;98.00;;;;;;5073961;28;20448;-64
2020/12/12 10:08:15;;;;;;;1.30;1.23;;;8.50;98.00;;;;;;5072095;28;20465;-63
2020/12/12 10:10:41;;;;;;;1.57;1.40;;;8.10;98.00;;;;;;5073812;28;20449;-62
2020/12/12 10:13:08;;;;;;;1.40;1.30;;;7.60;98.00;;;;;;5072022;28;20459;-64
2020/12/12 10:15:34;;;;;;;1.87;1.40;;;7.30;98.00;;;;;;5073363;28;20499;-63
2020/12/12 10:18:01;;;;;;;1.37;1.33;;;7.10;98.00;;;;;;5072802;28;20459;-63
2020/12/12 10:20:28;;;;;;;1.20;1.00;;;7.10;98.00;;;;;;5073123;28;20458;-62
2020/12/12 10:22:54;;;;;;;1.50;1.43;;;6.90;98.00;;;;;;5073488;28;20471;-62
2020/12/12 10:25:22;;;;;;;2.13;1.60;;;6.90;98.00;;;;;;5071702;28;20520;-62
2020/12/12 10:27:50;;;;;;;1.20;1.10;;;6.90;98.00;;;;;;5073593;28;20490;-62
2020/12/12 10:30:16;;;;;;;3.20;1.50;;;6.90;98.00;;;;;;5071509;28;20525;-62
2020/12/12 10:32:43;;;;;;;1.63;1.40;;;7.10;98.00;;;;;;5073087;28;20452;-62
2020/12/12 10:35:11;;;;;;;1.20;1.20;;;7.20;98.00;;;;;;5071585;28;20484;-63
2020/12/12 10:37:38;;;;;;;2.07;1.23;;;7.20;98.00;;;;;;5073417;28;20527;-62
2020/12/12 10:40:15;;;;;;;2.17;1.30;;;7.30;98.00;;;;;;5071613;28;20518;-63
2020/12/12 10:42:43;;;;;;;2.47;1.60;;;7.40;98.00;;;;;;5071634;28;20445;-63
2020/12/12 10:45:10;;;;;;;1.20;1.07;;;7.40;98.00;;;;;;5071404;28;20447;-63
2020/12/12 10:47:37;;;;;;;2.37;1.70;;;7.40;98.00;;;;;;5072200;28;20457;-61
2020/12/12 10:50:05;;;;;;;3.40;1.10;;;7.50;98.00;;;;;;5071423;28;20511;-62
2020/12/12 10:52:32;;;;;;;1.20;1.00;;;7.50;98.00;;;;;;5072760;28;20950;-63
2020/12/12 10:54:59;;;;;;;2.90;1.57;;;7.40;98.00;;;;;;5069989;28;21152;-63
2020/12/12 10:57:26;;;;;;;1.70;1.57;;;7.30;98.00;;;;;;5072857;28;20460;-63
2020/12/12 10:59:53;;;;;;;1.13;1.00;;;7.20;98.00;;;;;;5071122;28;20498;-64
2020/12/12 11:02:20;;;;;;;1.30;1.23;;;7.20;98.00;;;;;;5072443;28;20472;-63
2020/12/12 11:04:46;;;;;;;1.23;0.97;;;7.30;98.00;;;;;;5071162;28;20517;-64
2020/12/12 11:07:14;;;;;;;1.87;1.33;;;7.30;98.00;;;;;;5072781;28;20506;-62
2020/12/12 11:09:40;;;;;;;1.63;1.43;;;7.30;98.00;;;;;;5070992;28;20521;-62
2020/12/12 11:12:07;;;;;;;1.20;1.00;;;7.40;98.00;;;;;;5072463;28;20983;-63
2020/12/12 11:14:35;;;;;;;1.80;1.43;;;7.50;98.00;;;;;;5070230;28;20480;-63
2020/12/12 11:17:05;;;;;;;1.60;1.30;;;7.60;98.00;;;;;;5072407;28;20456;-63
2020/12/12 11:19:31;;;;;;;2.23;1.57;;;7.70;98.00;;;;;;5070601;28;20872;-63
2020/12/12 11:21:58;;;;;;;1.30;1.17;;;7.80;98.00;;;;;;5072519;28;20452;-62
2020/12/12 11:24:25;;;;;;;1.30;1.10;;;7.80;98.00;;;;;;5070610;28;20452;-62
2020/12/12 11:26:52;;;;;;;1.20;1.00;;;7.60;98.00;;;;;;5072616;28;20462;-61
2020/12/12 11:29:19;;;;;;;1.30;1.30;;;7.50;98.00;;;;;;5072589;28;20460;-62
2020/12/12 11:31:49;;;;;;;1.50;1.47;;;7.50;98.00;;;;;;5070305;28;20467;-63
2020/12/12 11:34:21;;;;;;;2.13;1.30;;;7.60;98.00;;;;;;5072462;28;20989;-62
2020/12/12 11:37:11;;;;;;;1.40;1.00;;;7.80;98.00;;;;;;5070866;28;20499;-62
2020/12/12 11:39:45;;;;;;;1.40;1.20;;;7.90;98.00;;;;;;5071907;28;20476;-62
2020/12/12 11:45:21;;;;;;;1.90;1.70;;;7.80;98.00;;;;;;5067662;28;20457;-63
2020/12/12 11:47:48;;;;;;;1.70;1.30;;;7.80;98.00;;;;;;5072071;28;20506;-61
2020/12/12 11:50:15;;;;;;;1.20;1.00;;;7.90;98.00;;;;;;5069947;28;20460;-62
2020/12/12 11:52:43;;;;;;;1.20;1.20;;;7.80;98.00;;;;;;5071569;28;20999;-61
2020/12/12 11:55:10;;;;;;;1.70;1.00;;;7.70;98.00;;;;;;5070202;28;20515;-62
2020/12/12 11:57:37;;;;;;;2.07;1.40;;;7.70;98.00;;;;;;5071729;28;20508;-61
2020/12/12 12:00:08;;;;;;;1.40;1.30;;;7.80;98.00;;;;;;5070021;28;20459;-61
2020/12/12 12:02:35;;;;;;;1.20;0.93;;;7.80;98.00;;;;;;5071650;28;20828;-61
2020/12/12 12:05:02;;;;;;;1.20;0.90;;;7.90;98.00;;;;;;5070036;28;20482;-61
2020/12/12 12:07:30;;;;;;;1.20;1.00;;;7.90;98.00;;;;;;5071759;28;20544;-61
2020/12/12 12:10:07;;;;;;;1.20;1.00;;;7.70;98.00;;;;;;5071708;28;20458;-61
2020/12/12 12:12:33;;;;;;;1.67;1.17;;;7.70;98.00;;;;;;5071330;28;20451;-61
2020/12/12 12:15:00;;;;;;;1.20;0.97;;;7.70;98.00;;;;;;5071506;28;20481;-63
2020/12/12 12:17:27;;;;;;;1.47;1.10;;;7.60;98.00;;;;;;5069678;28;20462;-63
2020/12/12 12:19:53;;;;;;;1.20;1.00;;;7.70;98.00;;;;;;5071475;28;20450;-63
2020/12/12 12:22:20;;;;;;;1.20;1.00;;;7.80;98.00;;;;;;5069228;28;20511;-61
2020/12/12 12:24:47;;;;;;;1.20;1.03;;;7.90;98.00;;;;;;5071607;28;20459;-61
2020/12/12 12:27:14;;;;;;;1.20;1.00;;;7.90;98.00;;;;;;5070044;28;20902;-61
2020/12/12 12:29:40;;;;;;;1.73;1.20;;;7.80;98.00;;;;;;5071194;28;20456;-61
2020/12/12 12:32:07;;;;;;;1.20;0.90;;;7.80;98.00;;;;;;5069775;28;20456;-61
2020/12/12 12:34:34;;;;;;;1.20;0.90;;;7.90;98.00;;;;;;5071532;28;20486;-62
2020/12/12 12:37:00;;;;;;;1.20;1.00;;;7.90;98.00;;;;;;5069739;28;20458;-61
2020/12/12 12:39:27;;;;;;;1.20;1.00;;;7.90;98.00;;;;;;5071785;28;20452;-61
2020/12/12 12:41:54;;;;;;;1.80;1.10;;;8.00;98.00;;;;;;5069656;28;20946;-61
2020/12/12 12:44:21;;;;;;;1.30;1.10;;;7.90;98.00;;;;;;5071544;28;20867;-61
2020/12/12 12:46:49;;;;;;;1.20;1.00;;;7.80;98.00;;;;;;5069427;28;20618;-61
2020/12/12 12:49:16;;;;;;;1.20;1.00;;;7.80;98.00;;;;;;5071535;28;20450;-61
2020/12/12 12:51:43;;;;;;;1.20;1.00;;;7.80;98.00;;;;;;5069405;28;20915;-61
2020/12/12 12:54:11;;;;;;;1.20;1.00;;;7.80;98.00;;;;;;5071766;28;20445;-61
2020/12/12 12:56:38;;;;;;;1.20;1.10;;;7.70;98.00;;;;;;5069376;28;20810;-61
2020/12/12 12:59:06;;;;;;;1.47;1.37;;;7.70;98.00;;;;;;5071365;28;20483;-61
2020/12/12 13:01:34;;;;;;;1.20;0.90;;;7.80;98.00;;;;;;5069611;28;20457;-61
2020/12/12 13:04:01;;;;;;;1.57;1.30;;;7.90;98.00;;;;;;5071563;28;20461;-61
2020/12/12 13:06:29;;;;;;;1.20;1.10;;;8.00;98.00;;;;;;5069563;28;20477;-61